sensor_id;sensor_type;location;lat;lon;timestamp;P1;durP1;ratioP1;P2;durP2;ratioP2
75021;SDS011;63583;49.976;20.182;2023-12-04T00:01:18;15.23;;;6.63;;
75021;SDS011;63583;49.976;20.182;2023-12-04T00:03:45;13.27;;;5.78;;
75021;SDS011;63583;49.976;20.182;2023-12-04T00:06:11;11.80;;;6.10;;
75021;SDS011;63583;49.976;20.182;2023-12-04T00:08:37;16.27;;;6.85;;
75021;SDS011;63583;49.976;20.182;2023-12-04T00:11:04;15.57;;;5.80;;
75021;SDS011;63583;49.976;20.182;2023-12-04T00:13:31;14.48;;;5.25;;
75021;SDS011;63583;49.976;20.182;2023-12-04T00:15:57;11.27;;;4.78;;
75021;SDS011;63583;49.976;20.182;2023-12-04T00:18:22;7.82;;;3.88;;
75021;SDS011;63583;49.976;20.182;2023-12-04T00:20:48;8.90;;;5.45;;
75021;SDS011;63583;49.976;20.182;2023-12-04T00:23:14;10.77;;;4.55;;
75021;SDS011;63583;49.976;20.182;2023-12-04T00:25:40;9.13;;;4.97;;
75021;SDS011;63583;49.976;20.182;2023-12-04T00:28:06;14.65;;;5.65;;
75021;SDS011;63583;49.976;20.182;2023-12-04T00:30:32;15.77;;;6.38;;
75021;SDS011;63583;49.976;20.182;2023-12-04T00:32:58;12.43;;;5.07;;
75021;SDS011;63583;49.976;20.182;2023-12-04T00:35:24;14.43;;;5.78;;
75021;SDS011;63583;49.976;20.182;2023-12-04T00:37:49;14.63;;;5.13;;
75021;SDS011;63583;49.976;20.182;2023-12-04T00:40:15;9.57;;;4.55;;
75021;SDS011;63583;49.976;20.182;2023-12-04T00:42:41;9.40;;;4.43;;
75021;SDS011;63583;49.976;20.182;2023-12-04T00:45:07;12.00;;;5.20;;
75021;SDS011;63583;49.976;20.182;2023-12-04T00:47:33;12.30;;;4.68;;
75021;SDS011;63583;49.976;20.182;2023-12-04T00:49:59;11.43;;;4.85;;
75021;SDS011;63583;49.976;20.182;2023-12-04T00:55:44;9.77;;;4.78;;
75021;SDS011;63583;49.976;20.182;2023-12-04T00:58:09;14.65;;;5.38;;
75021;SDS011;63583;49.976;20.182;2023-12-04T01:00:35;12.95;;;5.43;;
75021;SDS011;63583;49.976;20.182;2023-12-04T01:03:01;9.90;;;4.45;;
75021;SDS011;63583;49.976;20.182;2023-12-04T01:05:27;13.52;;;5.13;;
75021;SDS011;63583;49.976;20.182;2023-12-04T01:07:52;11.35;;;4.45;;
75021;SDS011;63583;49.976;20.182;2023-12-04T01:10:18;11.00;;;5.22;;
75021;SDS011;63583;49.976;20.182;2023-12-04T01:12:45;12.25;;;5.30;;
75021;SDS011;63583;49.976;20.182;2023-12-04T01:15:11;10.95;;;4.45;;
75021;SDS011;63583;49.976;20.182;2023-12-04T01:17:37;10.02;;;5.20;;
75021;SDS011;63583;49.976;20.182;2023-12-04T01:20:03;11.30;;;5.40;;
75021;SDS011;63583;49.976;20.182;2023-12-04T01:22:30;11.27;;;4.75;;
75021;SDS011;63583;49.976;20.182;2023-12-04T01:24:56;10.50;;;4.53;;
75021;SDS011;63583;49.976;20.182;2023-12-04T01:27:21;9.95;;;4.25;;
75021;SDS011;63583;49.976;20.182;2023-12-04T01:29:47;13.88;;;5.10;;
75021;SDS011;63583;49.976;20.182;2023-12-04T01:32:13;9.50;;;5.15;;
75021;SDS011;63583;49.976;20.182;2023-12-04T01:34:39;9.65;;;4.20;;
75021;SDS011;63583;49.976;20.182;2023-12-04T01:37:05;10.75;;;4.82;;
75021;SDS011;63583;49.976;20.182;2023-12-04T01:39:31;8.50;;;4.43;;
75021;SDS011;63583;49.976;20.182;2023-12-04T01:41:56;10.55;;;4.13;;
75021;SDS011;63583;49.976;20.182;2023-12-04T01:44:23;11.25;;;4.45;;
75021;SDS011;63583;49.976;20.182;2023-12-04T01:46:49;11.20;;;4.82;;
75021;SDS011;63583;49.976;20.182;2023-12-04T01:49:15;10.02;;;4.32;;
75021;SDS011;63583;49.976;20.182;2023-12-04T01:51:41;9.63;;;4.82;;
75021;SDS011;63583;49.976;20.182;2023-12-04T01:54:08;8.23;;;4.07;;
75021;SDS011;63583;49.976;20.182;2023-12-04T01:56:34;9.32;;;4.07;;
75021;SDS011;63583;49.976;20.182;2023-12-04T01:59:03;9.10;;;3.97;;
75021;SDS011;63583;49.976;20.182;2023-12-04T02:01:29;9.40;;;4.50;;
75021;SDS011;63583;49.976;20.182;2023-12-04T02:03:56;7.10;;;3.70;;
75021;SDS011;63583;49.976;20.182;2023-12-04T02:06:22;7.53;;;3.97;;
75021;SDS011;63583;49.976;20.182;2023-12-04T02:08:48;9.40;;;3.78;;
75021;SDS011;63583;49.976;20.182;2023-12-04T02:11:14;11.20;;;4.35;;
75021;SDS011;63583;49.976;20.182;2023-12-04T02:13:40;8.75;;;4.35;;
75021;SDS011;63583;49.976;20.182;2023-12-04T02:16:06;8.38;;;4.35;;
75021;SDS011;63583;49.976;20.182;2023-12-04T02:18:35;10.80;;;4.43;;
75021;SDS011;63583;49.976;20.182;2023-12-04T02:21:02;10.05;;;4.53;;
75021;SDS011;63583;49.976;20.182;2023-12-04T02:23:28;8.45;;;4.72;;
75021;SDS011;63583;49.976;20.182;2023-12-04T02:25:57;9.32;;;4.20;;
75021;SDS011;63583;49.976;20.182;2023-12-04T02:28:29;13.15;;;4.32;;
75021;SDS011;63583;49.976;20.182;2023-12-04T02:30:57;9.25;;;3.53;;
75021;SDS011;63583;49.976;20.182;2023-12-04T02:33:25;10.35;;;4.18;;
75021;SDS011;63583;49.976;20.182;2023-12-04T02:35:52;8.07;;;3.78;;
75021;SDS011;63583;49.976;20.182;2023-12-04T02:38:19;7.85;;;3.95;;
75021;SDS011;63583;49.976;20.182;2023-12-04T02:40:46;8.73;;;4.50;;
75021;SDS011;63583;49.976;20.182;2023-12-04T02:43:12;11.77;;;5.05;;
75021;SDS011;63583;49.976;20.182;2023-12-04T02:45:38;11.98;;;5.28;;
75021;SDS011;63583;49.976;20.182;2023-12-04T02:48:04;7.85;;;4.07;;
75021;SDS011;63583;49.976;20.182;2023-12-04T02:50:30;7.40;;;4.05;;
75021;SDS011;63583;49.976;20.182;2023-12-04T02:52:56;7.70;;;3.90;;
75021;SDS011;63583;49.976;20.182;2023-12-04T02:55:22;8.73;;;4.63;;
75021;SDS011;63583;49.976;20.182;2023-12-04T02:57:48;11.18;;;4.97;;
75021;SDS011;63583;49.976;20.182;2023-12-04T03:00:14;10.75;;;5.07;;
75021;SDS011;63583;49.976;20.182;2023-12-04T03:02:40;11.25;;;5.45;;
75021;SDS011;63583;49.976;20.182;2023-12-04T03:05:05;9.70;;;5.15;;
75021;SDS011;63583;49.976;20.182;2023-12-04T03:07:33;11.35;;;5.88;;
75021;SDS011;63583;49.976;20.182;2023-12-04T03:09:59;13.50;;;5.45;;
75021;SDS011;63583;49.976;20.182;2023-12-04T03:12:25;12.00;;;5.88;;
75021;SDS011;63583;49.976;20.182;2023-12-04T03:14:50;10.77;;;5.10;;
75021;SDS011;63583;49.976;20.182;2023-12-04T03:17:16;12.23;;;5.07;;
75021;SDS011;63583;49.976;20.182;2023-12-04T03:19:42;12.55;;;5.22;;
75021;SDS011;63583;49.976;20.182;2023-12-04T03:22:08;11.45;;;4.50;;
75021;SDS011;63583;49.976;20.182;2023-12-04T03:24:35;12.43;;;5.13;;
75021;SDS011;63583;49.976;20.182;2023-12-04T03:27:01;10.60;;;5.18;;
75021;SDS011;63583;49.976;20.182;2023-12-04T03:29:27;10.45;;;4.80;;
75021;SDS011;63583;49.976;20.182;2023-12-04T03:31:53;10.63;;;4.65;;
75021;SDS011;63583;49.976;20.182;2023-12-04T03:34:19;12.32;;;5.88;;
75021;SDS011;63583;49.976;20.182;2023-12-04T03:36:45;13.27;;;4.82;;
75021;SDS011;63583;49.976;20.182;2023-12-04T03:39:10;11.18;;;4.88;;
75021;SDS011;63583;49.976;20.182;2023-12-04T03:41:36;12.45;;;5.57;;
75021;SDS011;63583;49.976;20.182;2023-12-04T03:44:02;11.93;;;4.63;;
75021;SDS011;63583;49.976;20.182;2023-12-04T03:46:28;9.65;;;5.40;;
75021;SDS011;63583;49.976;20.182;2023-12-04T03:48:55;9.38;;;4.57;;
75021;SDS011;63583;49.976;20.182;2023-12-04T03:51:21;7.95;;;4.53;;
75021;SDS011;63583;49.976;20.182;2023-12-04T03:53:47;11.27;;;5.05;;
75021;SDS011;63583;49.976;20.182;2023-12-04T03:56:12;10.70;;;5.40;;
75021;SDS011;63583;49.976;20.182;2023-12-04T03:58:38;10.00;;;4.85;;
75021;SDS011;63583;49.976;20.182;2023-12-04T04:01:04;14.45;;;5.95;;
75021;SDS011;63583;49.976;20.182;2023-12-04T04:03:30;9.95;;;5.53;;
75021;SDS011;63583;49.976;20.182;2023-12-04T04:05:56;11.23;;;5.35;;
75021;SDS011;63583;49.976;20.182;2023-12-04T04:08:22;14.27;;;6.82;;
75021;SDS011;63583;49.976;20.182;2023-12-04T04:10:48;14.82;;;6.32;;
75021;SDS011;63583;49.976;20.182;2023-12-04T04:13:13;12.57;;;5.90;;
75021;SDS011;63583;49.976;20.182;2023-12-04T04:15:39;11.15;;;5.38;;
75021;SDS011;63583;49.976;20.182;2023-12-04T04:18:06;11.50;;;5.53;;
75021;SDS011;63583;49.976;20.182;2023-12-04T04:20:32;9.88;;;4.63;;
75021;SDS011;63583;49.976;20.182;2023-12-04T04:22:58;9.90;;;5.00;;
75021;SDS011;63583;49.976;20.182;2023-12-04T04:25:24;9.00;;;4.63;;
75021;SDS011;63583;49.976;20.182;2023-12-04T04:27:50;10.35;;;5.15;;
75021;SDS011;63583;49.976;20.182;2023-12-04T04:30:16;11.30;;;5.47;;
75021;SDS011;63583;49.976;20.182;2023-12-04T04:32:42;10.80;;;4.72;;
75021;SDS011;63583;49.976;20.182;2023-12-04T04:35:08;12.27;;;4.75;;
75021;SDS011;63583;49.976;20.182;2023-12-04T04:37:34;8.48;;;4.72;;
75021;SDS011;63583;49.976;20.182;2023-12-04T04:40:01;10.18;;;5.00;;
75021;SDS011;63583;49.976;20.182;2023-12-04T04:42:27;11.95;;;4.90;;
75021;SDS011;63583;49.976;20.182;2023-12-04T04:44:53;7.35;;;4.28;;
75021;SDS011;63583;49.976;20.182;2023-12-04T04:47:18;10.43;;;5.28;;
75021;SDS011;63583;49.976;20.182;2023-12-04T04:49:44;11.68;;;5.75;;
75021;SDS011;63583;49.976;20.182;2023-12-04T04:52:10;9.60;;;4.47;;
75021;SDS011;63583;49.976;20.182;2023-12-04T04:54:36;15.40;;;6.43;;
75021;SDS011;63583;49.976;20.182;2023-12-04T04:57:02;17.08;;;6.65;;
75021;SDS011;63583;49.976;20.182;2023-12-04T04:59:28;14.70;;;5.72;;
75021;SDS011;63583;49.976;20.182;2023-12-04T05:01:56;11.98;;;5.85;;
75021;SDS011;63583;49.976;20.182;2023-12-04T05:04:22;15.55;;;7.03;;
75021;SDS011;63583;49.976;20.182;2023-12-04T05:06:48;11.98;;;6.63;;
75021;SDS011;63583;49.976;20.182;2023-12-04T05:09:14;14.88;;;6.70;;
75021;SDS011;63583;49.976;20.182;2023-12-04T05:11:39;17.80;;;7.63;;
75021;SDS011;63583;49.976;20.182;2023-12-04T05:14:05;14.98;;;7.03;;
75021;SDS011;63583;49.976;20.182;2023-12-04T05:16:31;14.65;;;6.80;;
75021;SDS011;63583;49.976;20.182;2023-12-04T05:18:57;13.90;;;7.15;;
75021;SDS011;63583;49.976;20.182;2023-12-04T05:21:23;13.57;;;6.47;;
75021;SDS011;63583;49.976;20.182;2023-12-04T05:23:49;12.02;;;7.05;;
75021;SDS011;63583;49.976;20.182;2023-12-04T05:26:14;13.60;;;6.90;;
75021;SDS011;63583;49.976;20.182;2023-12-04T05:28:40;13.85;;;6.75;;
75021;SDS011;63583;49.976;20.182;2023-12-04T05:31:06;14.82;;;6.97;;
75021;SDS011;63583;49.976;20.182;2023-12-04T05:33:32;14.27;;;6.28;;
75021;SDS011;63583;49.976;20.182;2023-12-04T05:35:59;13.32;;;6.70;;
75021;SDS011;63583;49.976;20.182;2023-12-04T05:38:25;15.45;;;7.07;;
75021;SDS011;63583;49.976;20.182;2023-12-04T05:40:51;11.52;;;6.10;;
75021;SDS011;63583;49.976;20.182;2023-12-04T05:43:17;11.38;;;6.35;;
75021;SDS011;63583;49.976;20.182;2023-12-04T05:45:44;13.68;;;6.82;;
75021;SDS011;63583;49.976;20.182;2023-12-04T05:48:10;11.18;;;6.43;;
75021;SDS011;63583;49.976;20.182;2023-12-04T05:50:36;16.90;;;7.00;;
75021;SDS011;63583;49.976;20.182;2023-12-04T05:53:02;12.88;;;6.43;;
75021;SDS011;63583;49.976;20.182;2023-12-04T05:55:27;15.10;;;7.07;;
75021;SDS011;63583;49.976;20.182;2023-12-04T05:57:53;17.85;;;7.78;;
75021;SDS011;63583;49.976;20.182;2023-12-04T06:00:19;14.30;;;7.55;;
75021;SDS011;63583;49.976;20.182;2023-12-04T06:02:45;15.95;;;8.20;;
75021;SDS011;63583;49.976;20.182;2023-12-04T06:05:11;16.55;;;7.20;;
75021;SDS011;63583;49.976;20.182;2023-12-04T06:07:37;13.95;;;6.95;;
75021;SDS011;63583;49.976;20.182;2023-12-04T06:10:03;16.85;;;7.47;;
75021;SDS011;63583;49.976;20.182;2023-12-04T06:12:30;11.45;;;6.13;;
75021;SDS011;63583;49.976;20.182;2023-12-04T06:14:56;13.63;;;5.93;;
75021;SDS011;63583;49.976;20.182;2023-12-04T06:17:24;14.02;;;5.90;;
75021;SDS011;63583;49.976;20.182;2023-12-04T06:19:50;10.20;;;5.43;;
75021;SDS011;63583;49.976;20.182;2023-12-04T06:22:16;12.50;;;6.10;;
75021;SDS011;63583;49.976;20.182;2023-12-04T06:24:45;15.75;;;7.40;;
75021;SDS011;63583;49.976;20.182;2023-12-04T06:27:12;13.45;;;5.68;;
75021;SDS011;63583;49.976;20.182;2023-12-04T06:29:41;13.38;;;5.57;;
75021;SDS011;63583;49.976;20.182;2023-12-04T06:32:07;12.48;;;5.40;;
75021;SDS011;63583;49.976;20.182;2023-12-04T06:34:34;12.68;;;5.45;;
75021;SDS011;63583;49.976;20.182;2023-12-04T06:37:01;12.90;;;6.78;;
75021;SDS011;63583;49.976;20.182;2023-12-04T06:39:28;14.20;;;6.35;;
75021;SDS011;63583;49.976;20.182;2023-12-04T06:41:58;15.10;;;6.43;;
75021;SDS011;63583;49.976;20.182;2023-12-04T06:44:25;17.17;;;7.25;;
75021;SDS011;63583;49.976;20.182;2023-12-04T06:46:51;13.80;;;7.15;;
75021;SDS011;63583;49.976;20.182;2023-12-04T06:49:18;13.55;;;6.65;;
75021;SDS011;63583;49.976;20.182;2023-12-04T06:51:44;15.35;;;6.68;;
75021;SDS011;63583;49.976;20.182;2023-12-04T06:54:10;14.32;;;6.35;;
75021;SDS011;63583;49.976;20.182;2023-12-04T06:56:37;11.93;;;6.28;;
75021;SDS011;63583;49.976;20.182;2023-12-04T06:59:03;16.55;;;7.45;;
75021;SDS011;63583;49.976;20.182;2023-12-04T07:01:29;15.80;;;7.53;;
75021;SDS011;63583;49.976;20.182;2023-12-04T07:03:55;17.40;;;7.63;;
75021;SDS011;63583;49.976;20.182;2023-12-04T07:06:21;15.25;;;7.45;;
75021;SDS011;63583;49.976;20.182;2023-12-04T07:08:47;17.38;;;7.75;;
75021;SDS011;63583;49.976;20.182;2023-12-04T07:11:13;16.35;;;7.07;;
75021;SDS011;63583;49.976;20.182;2023-12-04T07:13:42;18.30;;;8.63;;
75021;SDS011;63583;49.976;20.182;2023-12-04T07:16:08;15.40;;;8.18;;
75021;SDS011;63583;49.976;20.182;2023-12-04T07:18:34;18.13;;;9.13;;
75021;SDS011;63583;49.976;20.182;2023-12-04T07:21:00;21.15;;;9.52;;
75021;SDS011;63583;49.976;20.182;2023-12-04T07:23:26;17.42;;;8.77;;
75021;SDS011;63583;49.976;20.182;2023-12-04T07:25:52;15.73;;;8.30;;
75021;SDS011;63583;49.976;20.182;2023-12-04T07:28:18;17.33;;;7.53;;
75021;SDS011;63583;49.976;20.182;2023-12-04T07:30:45;16.88;;;7.25;;
75021;SDS011;63583;49.976;20.182;2023-12-04T07:33:11;19.02;;;7.80;;
75021;SDS011;63583;49.976;20.182;2023-12-04T07:35:37;21.35;;;8.68;;
75021;SDS011;63583;49.976;20.182;2023-12-04T07:38:03;16.08;;;8.35;;
75021;SDS011;63583;49.976;20.182;2023-12-04T07:40:29;18.38;;;8.48;;
75021;SDS011;63583;49.976;20.182;2023-12-04T07:42:54;16.33;;;7.80;;
75021;SDS011;63583;49.976;20.182;2023-12-04T07:45:20;16.42;;;7.68;;
75021;SDS011;63583;49.976;20.182;2023-12-04T07:47:46;20.17;;;9.38;;
75021;SDS011;63583;49.976;20.182;2023-12-04T07:50:12;15.50;;;8.43;;
75021;SDS011;63583;49.976;20.182;2023-12-04T07:52:38;19.30;;;9.18;;
75021;SDS011;63583;49.976;20.182;2023-12-04T07:55:04;17.85;;;8.68;;
75021;SDS011;63583;49.976;20.182;2023-12-04T07:57:30;15.63;;;7.65;;
75021;SDS011;63583;49.976;20.182;2023-12-04T07:59:56;17.00;;;8.15;;
75021;SDS011;63583;49.976;20.182;2023-12-04T08:02:21;14.50;;;7.45;;
75021;SDS011;63583;49.976;20.182;2023-12-04T08:04:48;14.25;;;7.47;;
75021;SDS011;63583;49.976;20.182;2023-12-04T08:07:13;17.95;;;7.95;;
75021;SDS011;63583;49.976;20.182;2023-12-04T08:09:39;15.43;;;8.45;;
75021;SDS011;63583;49.976;20.182;2023-12-04T08:12:05;15.32;;;7.50;;
75021;SDS011;63583;49.976;20.182;2023-12-04T08:14:31;18.02;;;8.25;;
75021;SDS011;63583;49.976;20.182;2023-12-04T08:16:58;20.85;;;9.45;;
75021;SDS011;63583;49.976;20.182;2023-12-04T08:19:24;14.85;;;8.15;;
75021;SDS011;63583;49.976;20.182;2023-12-04T08:21:50;19.23;;;9.02;;
75021;SDS011;63583;49.976;20.182;2023-12-04T08:24:16;17.80;;;9.30;;
75021;SDS011;63583;49.976;20.182;2023-12-04T08:26:46;20.25;;;10.68;;
75021;SDS011;63583;49.976;20.182;2023-12-04T08:29:12;19.40;;;9.43;;
75021;SDS011;63583;49.976;20.182;2023-12-04T08:31:38;20.73;;;10.50;;
75021;SDS011;63583;49.976;20.182;2023-12-04T08:34:04;20.85;;;9.60;;
75021;SDS011;63583;49.976;20.182;2023-12-04T08:36:30;21.98;;;10.48;;
75021;SDS011;63583;49.976;20.182;2023-12-04T08:38:56;20.55;;;10.57;;
75021;SDS011;63583;49.976;20.182;2023-12-04T08:41:21;24.23;;;10.65;;
75021;SDS011;63583;49.976;20.182;2023-12-04T08:43:47;20.88;;;10.48;;
75021;SDS011;63583;49.976;20.182;2023-12-04T08:46:13;25.00;;;10.32;;
75021;SDS011;63583;49.976;20.182;2023-12-04T08:48:40;22.05;;;10.77;;
75021;SDS011;63583;49.976;20.182;2023-12-04T08:51:06;22.42;;;9.82;;
75021;SDS011;63583;49.976;20.182;2023-12-04T08:53:34;24.95;;;10.57;;
75021;SDS011;63583;49.976;20.182;2023-12-04T08:56:00;21.75;;;9.65;;
75021;SDS011;63583;49.976;20.182;2023-12-04T08:58:26;24.48;;;11.15;;
75021;SDS011;63583;49.976;20.182;2023-12-04T09:00:52;22.20;;;10.52;;
75021;SDS011;63583;49.976;20.182;2023-12-04T09:03:18;23.33;;;10.15;;
75021;SDS011;63583;49.976;20.182;2023-12-04T09:05:46;24.65;;;10.02;;
75021;SDS011;63583;49.976;20.182;2023-12-04T09:08:15;21.08;;;9.77;;
75021;SDS011;63583;49.976;20.182;2023-12-04T09:10:40;22.65;;;10.27;;
75021;SDS011;63583;49.976;20.182;2023-12-04T09:13:06;21.38;;;9.82;;
75021;SDS011;63583;49.976;20.182;2023-12-04T09:15:32;23.17;;;10.40;;
75021;SDS011;63583;49.976;20.182;2023-12-04T09:17:58;18.15;;;9.43;;
75021;SDS011;63583;49.976;20.182;2023-12-04T09:20:24;20.42;;;8.75;;
75021;SDS011;63583;49.976;20.182;2023-12-04T09:22:51;18.92;;;8.65;;
75021;SDS011;63583;49.976;20.182;2023-12-04T09:25:17;18.75;;;8.48;;
75021;SDS011;63583;49.976;20.182;2023-12-04T09:27:43;19.02;;;8.95;;
75021;SDS011;63583;49.976;20.182;2023-12-04T09:30:09;20.42;;;8.55;;
75021;SDS011;63583;49.976;20.182;2023-12-04T09:32:35;19.00;;;8.38;;
75021;SDS011;63583;49.976;20.182;2023-12-04T09:35:01;15.13;;;7.60;;
75021;SDS011;63583;49.976;20.182;2023-12-04T09:37:27;16.77;;;8.82;;
75021;SDS011;63583;49.976;20.182;2023-12-04T09:39:53;14.98;;;7.60;;
75021;SDS011;63583;49.976;20.182;2023-12-04T09:42:19;13.05;;;7.82;;
75021;SDS011;63583;49.976;20.182;2023-12-04T09:44:46;14.90;;;7.38;;
75021;SDS011;63583;49.976;20.182;2023-12-04T09:47:14;14.70;;;7.03;;
75021;SDS011;63583;49.976;20.182;2023-12-04T09:49:43;15.82;;;6.68;;
75021;SDS011;63583;49.976;20.182;2023-12-04T09:52:10;15.65;;;8.10;;
75021;SDS011;63583;49.976;20.182;2023-12-04T09:54:36;14.80;;;7.22;;
75021;SDS011;63583;49.976;20.182;2023-12-04T09:57:03;15.05;;;7.65;;
75021;SDS011;63583;49.976;20.182;2023-12-04T09:59:30;15.80;;;7.75;;
75021;SDS011;63583;49.976;20.182;2023-12-04T10:02:00;18.27;;;7.88;;
75021;SDS011;63583;49.976;20.182;2023-12-04T10:04:26;15.88;;;8.13;;
75021;SDS011;63583;49.976;20.182;2023-12-04T10:06:52;17.83;;;8.02;;
75021;SDS011;63583;49.976;20.182;2023-12-04T10:09:18;18.80;;;8.63;;
75021;SDS011;63583;49.976;20.182;2023-12-04T10:11:45;15.07;;;8.23;;
75021;SDS011;63583;49.976;20.182;2023-12-04T10:14:20;16.13;;;8.20;;
75021;SDS011;63583;49.976;20.182;2023-12-04T10:16:47;14.20;;;8.02;;
75021;SDS011;63583;49.976;20.182;2023-12-04T10:19:15;17.42;;;8.55;;
75021;SDS011;63583;49.976;20.182;2023-12-04T10:21:42;19.33;;;8.20;;
75021;SDS011;63583;49.976;20.182;2023-12-04T10:24:08;16.15;;;8.70;;
75021;SDS011;63583;49.976;20.182;2023-12-04T10:26:35;16.40;;;7.95;;
75021;SDS011;63583;49.976;20.182;2023-12-04T10:29:02;18.77;;;8.73;;
75021;SDS011;63583;49.976;20.182;2023-12-04T10:31:32;20.95;;;9.38;;
75021;SDS011;63583;49.976;20.182;2023-12-04T10:33:59;19.10;;;9.02;;
75021;SDS011;63583;49.976;20.182;2023-12-04T10:36:25;20.80;;;9.82;;
75021;SDS011;63583;49.976;20.182;2023-12-04T10:39:00;21.02;;;9.88;;
75021;SDS011;63583;49.976;20.182;2023-12-04T10:41:26;22.50;;;9.55;;
75021;SDS011;63583;49.976;20.182;2023-12-04T10:43:53;20.42;;;9.85;;
75021;SDS011;63583;49.976;20.182;2023-12-04T10:46:21;20.23;;;10.68;;
75021;SDS011;63583;49.976;20.182;2023-12-04T10:48:52;19.27;;;10.23;;
75021;SDS011;63583;49.976;20.182;2023-12-04T10:51:18;24.42;;;10.60;;
75021;SDS011;63583;49.976;20.182;2023-12-04T10:53:47;21.90;;;10.82;;
75021;SDS011;63583;49.976;20.182;2023-12-04T10:57:00;23.10;;;10.48;;
75021;SDS011;63583;49.976;20.182;2023-12-04T10:59:03;22.90;;;10.68;;
75021;SDS011;63583;49.976;20.182;2023-12-04T11:01:36;21.00;;;10.25;;
75021;SDS011;63583;49.976;20.182;2023-12-04T11:04:04;19.98;;;11.45;;
75021;SDS011;63583;49.976;20.182;2023-12-04T11:06:36;20.10;;;9.32;;
75021;SDS011;63583;49.976;20.182;2023-12-04T11:09:05;20.08;;;9.60;;
75021;SDS011;63583;49.976;20.182;2023-12-04T11:11:34;19.35;;;9.05;;
75021;SDS011;63583;49.976;20.182;2023-12-04T11:14:01;21.13;;;9.75;;
75021;SDS011;63583;49.976;20.182;2023-12-04T11:22:10;18.40;;;8.57;;
75021;SDS011;63583;49.976;20.182;2023-12-04T11:24:38;22.08;;;9.32;;
75021;SDS011;63583;49.976;20.182;2023-12-04T11:27:05;18.23;;;8.52;;
75021;SDS011;63583;49.976;20.182;2023-12-04T11:29:31;18.17;;;8.95;;
75021;SDS011;63583;49.976;20.182;2023-12-04T11:31:58;17.90;;;8.45;;
75021;SDS011;63583;49.976;20.182;2023-12-04T11:34:24;13.93;;;6.95;;
75021;SDS011;63583;49.976;20.182;2023-12-04T11:36:50;16.33;;;6.63;;
75021;SDS011;63583;49.976;20.182;2023-12-04T11:39:18;15.18;;;7.65;;
75021;SDS011;63583;49.976;20.182;2023-12-04T11:41:44;14.30;;;7.13;;
75021;SDS011;63583;49.976;20.182;2023-12-04T11:44:14;17.40;;;7.90;;
75021;SDS011;63583;49.976;20.182;2023-12-04T11:46:54;12.57;;;6.82;;
75021;SDS011;63583;49.976;20.182;2023-12-04T11:49:28;15.38;;;6.90;;
75021;SDS011;63583;49.976;20.182;2023-12-04T11:51:59;14.40;;;7.05;;
75021;SDS011;63583;49.976;20.182;2023-12-04T11:54:27;16.27;;;7.35;;
75021;SDS011;63583;49.976;20.182;2023-12-04T11:59:27;14.15;;;6.97;;
75021;SDS011;63583;49.976;20.182;2023-12-04T12:01:54;14.00;;;6.68;;
75021;SDS011;63583;49.976;20.182;2023-12-04T12:04:21;14.52;;;7.20;;
75021;SDS011;63583;49.976;20.182;2023-12-04T12:06:47;16.70;;;8.38;;
75021;SDS011;63583;49.976;20.182;2023-12-04T12:09:14;19.23;;;8.13;;
75021;SDS011;63583;49.976;20.182;2023-12-04T12:11:41;20.92;;;8.93;;
75021;SDS011;63583;49.976;20.182;2023-12-04T12:14:06;14.57;;;6.45;;
75021;SDS011;63583;49.976;20.182;2023-12-04T12:16:32;12.98;;;6.57;;
75021;SDS011;63583;49.976;20.182;2023-12-04T12:18:58;11.82;;;7.30;;
75021;SDS011;63583;49.976;20.182;2023-12-04T12:21:26;13.48;;;7.13;;
75021;SDS011;63583;49.976;20.182;2023-12-04T12:23:54;12.00;;;6.60;;
75021;SDS011;63583;49.976;20.182;2023-12-04T12:26:19;11.15;;;6.13;;
75021;SDS011;63583;49.976;20.182;2023-12-04T12:28:45;12.18;;;6.28;;
75021;SDS011;63583;49.976;20.182;2023-12-04T12:31:11;12.27;;;5.95;;
75021;SDS011;63583;49.976;20.182;2023-12-04T12:33:37;11.40;;;6.63;;
75021;SDS011;63583;49.976;20.182;2023-12-04T12:36:03;11.57;;;6.00;;
75021;SDS011;63583;49.976;20.182;2023-12-04T12:38:30;12.88;;;6.30;;
75021;SDS011;63583;49.976;20.182;2023-12-04T12:41:00;11.80;;;6.50;;
75021;SDS011;63583;49.976;20.182;2023-12-04T12:43:27;13.55;;;5.60;;
75021;SDS011;63583;49.976;20.182;2023-12-04T12:45:53;14.27;;;6.85;;
75021;SDS011;63583;49.976;20.182;2023-12-04T12:48:19;10.63;;;5.50;;
75021;SDS011;63583;49.976;20.182;2023-12-04T12:50:45;12.93;;;6.30;;
75021;SDS011;63583;49.976;20.182;2023-12-04T12:53:17;13.88;;;6.85;;
75021;SDS011;63583;49.976;20.182;2023-12-04T12:55:43;11.50;;;6.35;;
75021;SDS011;63583;49.976;20.182;2023-12-04T12:58:10;14.73;;;7.32;;
75021;SDS011;63583;49.976;20.182;2023-12-04T13:00:39;19.00;;;7.15;;
75021;SDS011;63583;49.976;20.182;2023-12-04T13:03:15;18.88;;;8.02;;
75021;SDS011;63583;49.976;20.182;2023-12-04T13:05:41;16.25;;;7.45;;
75021;SDS011;63583;49.976;20.182;2023-12-04T13:08:07;18.48;;;7.55;;
75021;SDS011;63583;49.976;20.182;2023-12-04T13:10:33;15.35;;;7.10;;
75021;SDS011;63583;49.976;20.182;2023-12-04T13:12:59;17.00;;;8.13;;
75021;SDS011;63583;49.976;20.182;2023-12-04T13:15:26;17.95;;;7.70;;
75021;SDS011;63583;49.976;20.182;2023-12-04T13:17:52;17.23;;;7.57;;
75021;SDS011;63583;49.976;20.182;2023-12-04T13:20:18;14.82;;;7.03;;
75021;SDS011;63583;49.976;20.182;2023-12-04T13:22:44;17.58;;;8.48;;
75021;SDS011;63583;49.976;20.182;2023-12-04T13:25:10;21.20;;;8.38;;
75021;SDS011;63583;49.976;20.182;2023-12-04T13:27:37;14.77;;;7.43;;
75021;SDS011;63583;49.976;20.182;2023-12-04T13:30:06;16.00;;;7.35;;
75021;SDS011;63583;49.976;20.182;2023-12-04T13:32:36;19.50;;;8.40;;
75021;SDS011;63583;49.976;20.182;2023-12-04T13:35:03;16.00;;;7.85;;
75021;SDS011;63583;49.976;20.182;2023-12-04T13:37:33;16.20;;;8.38;;
75021;SDS011;63583;49.976;20.182;2023-12-04T13:40:05;17.10;;;7.70;;
75021;SDS011;63583;49.976;20.182;2023-12-04T13:42:38;17.15;;;7.32;;
75021;SDS011;63583;49.976;20.182;2023-12-04T13:45:22;16.73;;;8.00;;
75021;SDS011;63583;49.976;20.182;2023-12-04T13:47:49;17.38;;;8.00;;
75021;SDS011;63583;49.976;20.182;2023-12-04T13:50:15;17.10;;;7.35;;
75021;SDS011;63583;49.976;20.182;2023-12-04T13:52:42;17.77;;;7.57;;
75021;SDS011;63583;49.976;20.182;2023-12-04T13:55:09;20.70;;;8.18;;
75021;SDS011;63583;49.976;20.182;2023-12-04T13:57:46;15.57;;;7.20;;
75021;SDS011;63583;49.976;20.182;2023-12-04T14:00:34;15.90;;;7.50;;
75021;SDS011;63583;49.976;20.182;2023-12-04T14:03:01;15.63;;;7.63;;
75021;SDS011;63583;49.976;20.182;2023-12-04T14:05:30;15.50;;;7.05;;
75021;SDS011;63583;49.976;20.182;2023-12-04T14:07:57;17.52;;;6.90;;
75021;SDS011;63583;49.976;20.182;2023-12-04T14:10:24;16.10;;;7.90;;
75021;SDS011;63583;49.976;20.182;2023-12-04T14:12:54;15.32;;;7.38;;
75021;SDS011;63583;49.976;20.182;2023-12-04T14:15:20;17.90;;;7.05;;
75021;SDS011;63583;49.976;20.182;2023-12-04T14:17:46;17.83;;;8.48;;
75021;SDS011;63583;49.976;20.182;2023-12-04T14:20:12;15.80;;;7.57;;
75021;SDS011;63583;49.976;20.182;2023-12-04T14:22:41;17.83;;;7.88;;
75021;SDS011;63583;49.976;20.182;2023-12-04T14:25:08;19.60;;;7.85;;
75021;SDS011;63583;49.976;20.182;2023-12-04T14:27:34;17.75;;;7.80;;
75021;SDS011;63583;49.976;20.182;2023-12-04T14:30:00;18.33;;;7.97;;
75021;SDS011;63583;49.976;20.182;2023-12-04T14:32:29;18.25;;;8.15;;